Time;durP1;ratioP1;P1;durP2;ratioP2;P2;SDS_P1;SDS_P2;PMS_P1;PMS_P2;Temp;Humidity;BMP_temperature;BMP_pressure;BME280_temperature;BME280_humidity;BME280_pressure;Samples;Min_cycle;Max_cycle;Signal;HPM_P1;HPM_P2
2024/01/03 00:02:13;;;;;;;4.67;1.57;;;17.90;70.60;;;;;;4991662;28;20465;-80
2024/01/03 00:04:41;;;;;;;5.57;1.30;;;17.90;70.40;;;;;;4989683;28;20477;-80
2024/01/03 00:07:09;;;;;;;2.70;1.40;;;17.80;70.60;;;;;;4985422;28;20453;-80
2024/01/03 00:09:37;;;;;;;2.53;1.53;;;17.80;70.60;;;;;;4990582;28;20573;-80
2024/01/03 00:12:06;;;;;;;2.10;1.50;;;17.80;70.40;;;;;;4984874;28;20558;-79
2024/01/03 00:14:34;;;;;;;2.93;1.50;;;17.80;70.40;;;;;;4990381;28;20496;-79
2024/01/03 00:17:04;;;;;;;2.00;1.40;;;17.80;70.10;;;;;;4992763;28;20544;-79
2024/01/03 00:19:34;;;;;;;1.40;1.27;;;17.80;70.50;;;;;;4991822;28;20468;-78
2024/01/03 00:22:02;;;;;;;4.40;1.50;;;17.80;70.40;;;;;;4987322;28;20445;-79
2024/01/03 00:24:30;;;;;;;8.43;1.47;;;17.80;70.30;;;;;;4994471;28;20473;-79
2024/01/03 00:26:58;;;;;;;4.87;1.67;;;17.80;70.40;;;;;;4992659;28;20960;-80
2024/01/03 00:29:47;;;;;;;3.60;1.50;;;17.80;69.90;;;;;;4994634;28;20476;-80
2024/01/03 00:32:17;;;;;;;3.60;1.30;;;17.80;70.50;;;;;;4985909;28;20469;-79
2024/01/03 00:34:48;;;;;;;1.97;1.33;;;17.80;70.40;;;;;;4986852;28;20858;-80
2024/01/03 00:37:25;;;;;;;3.57;1.60;;;17.80;69.90;;;;;;4995356;28;20438;-81
2024/01/03 00:39:53;;;;;;;2.57;1.10;;;17.70;69.50;;;;;;4995811;28;20501;-79
2024/01/03 00:42:21;;;;;;;2.60;1.40;;;17.70;69.50;;;;;;4991479;28;20433;-79
2024/01/03 00:44:49;;;;;;;4.10;1.20;;;17.70;70.20;;;;;;4993714;28;20474;-79
2024/01/03 00:47:19;;;;;;;2.10;1.20;;;17.70;70.10;;;;;;4997764;28;20449;-78
2024/01/03 00:49:47;;;;;;;3.33;1.30;;;17.70;70.00;;;;;;4989382;28;20458;-79
2024/01/03 00:52:16;;;;;;;9.07;1.40;;;17.70;70.20;;;;;;4978274;28;20448;-78
2024/01/03 00:54:44;;;;;;;6.07;1.30;;;17.70;69.80;;;;;;4978231;28;20533;-79
2024/01/03 00:57:12;;;;;;;3.07;1.30;;;17.70;69.80;;;;;;4986062;28;20481;-78
2024/01/03 00:59:40;;;;;;;5.03;1.20;;;17.70;69.70;;;;;;4997075;28;20465;-78
2024/01/03 01:02:08;;;;;;;2.63;1.30;;;17.70;69.50;;;;;;4997821;28;20445;-79
2024/01/03 01:04:39;;;;;;;3.87;1.37;;;17.60;69.50;;;;;;5000605;28;20468;-78
2024/01/03 01:07:07;;;;;;;2.10;1.57;;;17.60;70.00;;;;;;5002861;28;20465;-79
2024/01/03 01:09:35;;;;;;;3.37;1.70;;;17.60;69.50;;;;;;5023585;23;20524;-76
2024/01/03 01:12:03;;;;;;;2.60;1.20;;;17.60;69.90;;;;;;5012128;28;20455;-77
2024/01/03 01:14:31;;;;;;;2.10;1.20;;;17.60;69.40;;;;;;5016166;28;20420;-80
2024/01/03 01:16:59;;;;;;;4.30;1.47;;;17.60;69.60;;;;;;5018495;28;20448;-79
2024/01/03 01:19:27;;;;;;;4.03;1.50;;;17.60;69.50;;;;;;5017709;28;20880;-79
2024/01/03 01:21:57;;;;;;;2.93;1.00;;;17.60;69.50;;;;;;5011464;28;20464;-77
2024/01/03 01:24:26;;;;;;;2.97;1.40;;;17.60;69.60;;;;;;5014240;28;20452;-77
2024/01/03 01:26:54;;;;;;;2.57;1.30;;;17.60;69.70;;;;;;5013648;28;20464;-76
2024/01/03 01:29:22;;;;;;;3.60;1.33;;;17.60;69.20;;;;;;5012529;28;20560;-76
2024/01/03 01:31:50;;;;;;;1.13;1.03;;;17.50;69.20;;;;;;5013534;28;20436;-77
2024/01/03 01:34:19;;;;;;;2.10;1.23;;;17.60;69.40;;;;;;5012938;28;20479;-76
2024/01/03 01:36:46;;;;;;;2.10;1.20;;;17.50;69.00;;;;;;5013478;28;20447;-76
2024/01/03 01:39:17;;;;;;;3.67;1.33;;;17.50;69.20;;;;;;5013158;28;20464;-76
2024/01/03 01:41:45;;;;;;;1.67;1.10;;;17.50;69.70;;;;;;5013242;28;20440;-76
2024/01/03 01:44:13;;;;;;;1.53;1.20;;;17.50;69.40;;;;;;5013022;28;20476;-79
2024/01/03 01:46:42;;;;;;;1.40;1.20;;;17.50;69.50;;;;;;5010237;28;20472;-77
2024/01/03 01:49:10;;;;;;;2.70;1.27;;;17.50;69.20;;;;;;5008612;28;20503;-76
2024/01/03 01:51:38;;;;;;;2.17;1.10;;;17.50;69.30;;;;;;5012364;28;20455;-77
2024/01/03 01:54:07;;;;;;;2.20;1.10;;;17.50;69.30;;;;;;5012774;28;20441;-77
2024/01/03 01:56:36;;;;;;;3.13;1.40;;;17.50;69.20;;;;;;5012758;28;20436;-77
2024/01/03 01:59:05;;;;;;;1.40;1.13;;;17.50;69.20;;;;;;5012451;28;20463;-76
2024/01/03 02:01:34;;;;;;;1.23;0.90;;;17.50;69.20;;;;;;5011995;28;20455;-77
2024/01/03 02:04:03;;;;;;;1.90;1.20;;;17.50;68.90;;;;;;5011765;28;20483;-77
2024/01/03 02:06:31;;;;;;;2.20;1.23;;;17.40;69.20;;;;;;5012824;28;20476;-77
2024/01/03 02:08:59;;;;;;;3.13;1.20;;;17.40;68.70;;;;;;5008862;28;20469;-76
2024/01/03 02:11:27;;;;;;;2.60;1.10;;;17.40;68.70;;;;;;5012058;28;20490;-77
2024/01/03 02:13:56;;;;;;;2.00;0.97;;;17.40;69.10;;;;;;5011929;28;20510;-76
2024/01/03 02:16:24;;;;;;;1.93;1.00;;;17.40;68.70;;;;;;5011094;28;20935;-77
2024/01/03 02:18:52;;;;;;;1.50;1.10;;;17.40;68.70;;;;;;5012058;28;20962;-76
2024/01/03 02:21:22;;;;;;;1.00;0.90;;;17.40;68.50;;;;;;5009927;28;20507;-77
2024/01/03 02:23:50;;;;;;;1.47;1.07;;;17.30;68.80;;;;;;5012040;28;20444;-77
2024/01/03 02:26:18;;;;;;;2.30;1.00;;;17.40;68.70;;;;;;5011924;28;20559;-77
2024/01/03 02:28:56;;;;;;;2.63;1.17;;;17.40;68.70;;;;;;5012529;28;20438;-77
2024/01/03 02:31:24;;;;;;;1.27;1.00;;;17.30;68.40;;;;;;5012021;28;20444;-76
2024/01/03 02:33:53;;;;;;;1.50;1.10;;;17.30;68.50;;;;;;5012356;28;20455;-79
2024/01/03 02:36:22;;;;;;;1.43;1.10;;;17.30;68.60;;;;;;5007208;28;20532;-77
2024/01/03 02:38:51;;;;;;;2.00;1.20;;;17.30;68.80;;;;;;5011686;28;20469;-76
2024/01/03 02:41:20;;;;;;;2.63;1.13;;;17.30;68.70;;;;;;5006532;28;20440;-76
2024/01/03 02:43:48;;;;;;;1.63;1.10;;;17.30;68.60;;;;;;5012385;28;20483;-76
2024/01/03 02:46:18;;;;;;;2.07;1.10;;;17.30;68.50;;;;;;5011653;28;20919;-77
2024/01/03 02:48:46;;;;;;;2.90;1.20;;;17.30;68.60;;;;;;5011657;28;20472;-76
2024/01/03 02:51:18;;;;;;;1.57;1.10;;;17.30;68.40;;;;;;5004773;28;20498;-76
2024/01/03 02:53:47;;;;;;;2.90;1.23;;;17.30;68.50;;;;;;5008546;28;20527;-76
2024/01/03 02:56:16;;;;;;;1.40;1.13;;;17.30;68.50;;;;;;5012087;28;20455;-77
2024/01/03 02:58:44;;;;;;;1.33;1.20;;;17.30;68.50;;;;;;5012273;28;20471;-76
2024/01/03 03:01:11;;;;;;;3.67;1.20;;;17.20;68.20;;;;;;5011388;28;20530;-76
2024/01/03 03:03:40;;;;;;;3.27;1.90;;;17.20;68.50;;;;;;5012078;28;20436;-77
2024/01/03 03:06:08;;;;;;;2.60;1.93;;;17.20;68.30;;;;;;5012079;28;20530;-78
2024/01/03 03:08:36;;;;;;;4.07;1.93;;;17.20;68.30;;;;;;5010650;28;20466;-77
2024/01/03 03:11:07;;;;;;;2.60;1.93;;;17.20;68.60;;;;;;5011168;28;20464;-77
2024/01/03 03:13:36;;;;;;;1.83;1.70;;;17.20;68.20;;;;;;5012344;28;20413;-75
2024/01/03 03:16:04;;;;;;;4.00;2.27;;;17.20;68.10;;;;;;5011772;28;20535;-77
2024/01/03 03:18:31;;;;;;;2.93;2.20;;;17.20;68.40;;;;;;5012125;28;20451;-77
2024/01/03 03:21:00;;;;;;;2.80;1.93;;;17.20;68.60;;;;;;5009988;28;20483;-77
2024/01/03 03:23:28;;;;;;;4.10;2.10;;;17.20;68.30;;;;;;5011562;28;20440;-77
2024/01/03 03:25:56;;;;;;;3.60;2.03;;;17.20;68.40;;;;;;5011422;28;20472;-77
2024/01/03 03:28:25;;;;;;;3.00;1.97;;;17.20;68.60;;;;;;5011156;28;20476;-77
2024/01/03 03:30:53;;;;;;;2.87;2.37;;;17.20;68.20;;;;;;5010916;28;20492;-76
2024/01/03 03:33:22;;;;;;;4.43;2.20;;;17.20;68.20;;;;;;5011837;28;20452;-77
2024/01/03 03:35:50;;;;;;;2.03;1.87;;;17.20;68.10;;;;;;5011395;28;20448;-76
2024/01/03 03:38:18;;;;;;;3.63;2.30;;;17.20;68.20;;;;;;5005352;28;20498;-77
2024/01/03 03:40:45;;;;;;;4.03;2.00;;;17.20;68.40;;;;;;5010297;28;20460;-76
2024/01/03 03:43:14;;;;;;;2.93;1.90;;;17.20;68.30;;;;;;5010955;28;20535;-77
2024/01/03 03:45:44;;;;;;;6.50;2.00;;;17.20;68.10;;;;;;5010853;28;20452;-78
2024/01/03 03:48:13;;;;;;;2.70;2.33;;;17.20;68.10;;;;;;5011155;28;20529;-77
2024/01/03 03:50:41;;;;;;;1.97;1.63;;;17.20;68.30;;;;;;5010167;28;20464;-77
2024/01/03 03:53:10;;;;;;;1.97;1.80;;;17.10;68.20;;;;;;5009946;28;20460;-77
2024/01/03 03:55:43;;;;;;;4.03;1.80;;;17.20;67.80;;;;;;5010236;28;20447;-78
2024/01/03 03:58:10;;;;;;;2.00;1.90;;;17.20;68.30;;;;;;5011497;28;20432;-78
2024/01/03 04:00:39;;;;;;;2.60;1.60;;;17.20;68.00;;;;;;5007456;28;20481;-78
2024/01/03 04:03:08;;;;;;;1.70;1.60;;;17.10;67.90;;;;;;5002293;28;20437;-77
2024/01/03 04:05:36;;;;;;;2.50;1.77;;;17.20;68.20;;;;;;5008518;28;20444;-78
2024/01/03 04:08:05;;;;;;;3.03;1.80;;;17.20;67.90;;;;;;5022645;28;20514;-78
2024/01/03 04:10:34;;;;;;;1.90;1.50;;;17.20;68.20;;;;;;5019278;28;20494;-77
2024/01/03 04:13:03;;;;;;;1.50;1.37;;;17.20;67.80;;;;;;5012974;28;20455;-79
2024/01/03 04:15:31;;;;;;;1.77;1.63;;;17.10;67.50;;;;;;5010490;28;20448;-77
2024/01/03 04:17:59;;;;;;;2.27;1.80;;;17.10;67.90;;;;;;5009558;28;20455;-77
2024/01/03 04:20:29;;;;;;;1.47;1.37;;;17.10;67.70;;;;;;5009963;28;20461;-77
2024/01/03 04:22:57;;;;;;;1.93;1.20;;;17.10;67.70;;;;;;5009638;28;20467;-78
2024/01/03 04:25:25;;;;;;;2.30;1.50;;;17.10;67.80;;;;;;5010378;28;20463;-78
2024/01/03 04:27:54;;;;;;;2.90;1.63;;;17.10;68.00;;;;;;5010922;28;20527;-76
2024/01/03 04:30:22;;;;;;;1.97;1.30;;;17.10;67.50;;;;;;5009711;28;20551;-76
2024/01/03 04:32:49;;;;;;;1.83;1.20;;;17.10;67.70;;;;;;5010013;28;20534;-77
2024/01/03 04:35:18;;;;;;;2.50;1.50;;;17.10;68.10;;;;;;5009936;28;20452;-77
2024/01/03 04:37:47;;;;;;;2.10;1.77;;;17.10;67.70;;;;;;5009118;28;20448;-76
2024/01/03 04:40:15;;;;;;;1.37;1.27;;;17.10;67.60;;;;;;5009414;28;20498;-78
2024/01/03 04:42:43;;;;;;;3.67;1.30;;;17.10;67.70;;;;;;5010071;28;20449;-77
2024/01/03 04:45:11;;;;;;;2.10;1.40;;;17.10;67.70;;;;;;5009852;28;20436;-77
2024/01/03 04:47:40;;;;;;;1.50;1.27;;;17.10;67.60;;;;;;5009779;28;20450;-76
2024/01/03 04:50:09;;;;;;;1.93;1.40;;;17.10;67.60;;;;;;5009302;28;20511;-77
2024/01/03 04:52:37;;;;;;;1.57;1.40;;;17.10;67.80;;;;;;5005189;28;20492;-78
2024/01/03 04:55:07;;;;;;;1.50;1.40;;;17.20;68.00;;;;;;5009495;28;20467;-77
2024/01/03 04:57:35;;;;;;;2.50;1.50;;;17.10;67.70;;;;;;5009839;28;20437;-78
2024/01/03 05:00:04;;;;;;;1.73;1.23;;;17.10;67.90;;;;;;5009512;28;20547;-77
2024/01/03 05:02:32;;;;;;;1.13;1.13;;;17.20;67.60;;;;;;5010577;28;20437;-78
2024/01/03 05:05:00;;;;;;;1.60;1.30;;;17.10;67.20;;;;;;5010999;28;20495;-75
2024/01/03 05:07:29;;;;;;;1.40;1.30;;;17.10;67.80;;;;;;5002150;28;20468;-76
2024/01/03 05:09:57;;;;;;;1.30;1.20;;;17.10;67.80;;;;;;5009511;28;20474;-77
2024/01/03 05:12:27;;;;;;;1.13;1.10;;;17.10;67.70;;;;;;5008272;28;20977;-77
2024/01/03 05:14:55;;;;;;;2.20;1.10;;;17.10;67.70;;;;;;5009890;28;20468;-76
2024/01/03 05:17:23;;;;;;;1.53;1.10;;;17.10;67.90;;;;;;5009963;28;20444;-76
2024/01/03 05:19:52;;;;;;;1.17;1.17;;;17.10;67.40;;;;;;5009815;28;20472;-76
2024/01/03 05:22:20;;;;;;;1.60;1.40;;;17.10;67.80;;;;;;5008268;28;20599;-77
2024/01/03 05:24:48;;;;;;;1.07;1.07;;;17.10;67.90;;;;;;5009906;28;20515;-76
2024/01/03 05:27:16;;;;;;;1.20;1.10;;;17.10;67.60;;;;;;5013131;28;20994;-77
2024/01/03 05:29:46;;;;;;;2.67;1.30;;;17.10;67.70;;;;;;5013037;28;20575;-76
2024/01/03 05:32:14;;;;;;;1.23;1.23;;;17.10;67.70;;;;;;5013942;28;20439;-78
2024/01/03 05:34:42;;;;;;;1.30;1.20;;;17.10;67.60;;;;;;5015262;28;20448;-76
2024/01/03 05:37:11;;;;;;;1.40;1.30;;;17.10;67.60;;;;;;5013412;28;20432;-76
2024/01/03 05:39:39;;;;;;;1.53;1.40;;;17.10;67.70;;;;;;5012059;28;20468;-76
2024/01/03 05:42:08;;;;;;;1.30;1.20;;;17.10;67.70;;;;;;5013745;28;20480;-76
2024/01/03 05:44:36;;;;;;;1.57;1.20;;;17.10;68.00;;;;;;5013164;28;20555;-76
2024/01/03 05:47:06;;;;;;;1.27;1.17;;;17.10;67.60;;;;;;5013126;28;20448;-77
2024/01/03 05:49:35;;;;;;;2.03;1.30;;;17.10;67.70;;;;;;5007345;28;20531;-76
2024/01/03 05:52:03;;;;;;;1.33;1.23;;;17.10;67.70;;;;;;5008110;28;20429;-75
2024/01/03 05:54:32;;;;;;;1.30;1.20;;;17.10;68.00;;;;;;5012813;28;20433;-77
2024/01/03 05:57:00;;;;;;;2.90;1.63;;;17.10;68.00;;;;;;5011789;28;20546;-76
2024/01/03 05:59:29;;;;;;;1.47;1.37;;;17.10;67.80;;;;;;5012154;28;20457;-76
2024/01/03 06:01:57;;;;;;;1.43;1.33;;;17.20;68.20;;;;;;5013167;28;20836;-78
2024/01/03 06:04:27;;;;;;;2.20;1.63;;;17.20;68.90;;;;;;5012673;28;20523;-77
2024/01/03 06:06:54;;;;;;;1.77;1.40;;;17.20;68.10;;;;;;5012936;28;20495;-78
2024/01/03 06:09:23;;;;;;;2.20;1.60;;;17.20;68.00;;;;;;5012329;28;20490;-77
2024/01/03 06:11:51;;;;;;;3.70;1.50;;;17.20;68.20;;;;;;5011944;28;20469;-78
2024/01/03 06:14:19;;;;;;;2.73;1.60;;;17.20;67.80;;;;;;5011742;28;20441;-78
2024/01/03 06:16:48;;;;;;;1.90;1.70;;;17.20;68.20;;;;;;5012684;28;20458;-77
2024/01/03 06:19:16;;;;;;;1.67;1.57;;;17.20;68.00;;;;;;5011861;28;20464;-78
2024/01/03 06:21:46;;;;;;;2.33;1.60;;;17.10;68.20;;;;;;5012223;28;20476;-77
2024/01/03 06:24:13;;;;;;;2.30;1.40;;;17.10;68.30;;;;;;5011293;28;20551;-77
2024/01/03 06:26:42;;;;;;;2.40;1.50;;;17.10;68.00;;;;;;5009789;28;20464;-77
2024/01/03 06:29:10;;;;;;;2.40;1.60;;;17.20;67.60;;;;;;5012008;28;20472;-79
2024/01/03 06:31:38;;;;;;;5.23;1.53;;;17.20;67.90;;;;;;5012746;28;20506;-77
2024/01/03 06:34:06;;;;;;;4.43;1.93;;;17.10;67.80;;;;;;5013343;28;20476;-76
2024/01/03 06:36:35;;;;;;;3.23;1.57;;;17.20;68.10;;;;;;5013856;28;20445;-76
2024/01/03 06:39:04;;;;;;;6.50;1.87;;;17.10;67.80;;;;;;5013510;28;20440;-77
2024/01/03 06:41:33;;;;;;;2.93;1.60;;;17.20;68.00;;;;;;5013422;28;20510;-77
2024/01/03 06:44:00;;;;;;;2.30;1.80;;;17.20;67.80;;;;;;5005251;28;20535;-76
2024/01/03 06:46:29;;;;;;;2.50;1.70;;;17.20;68.30;;;;;;5005735;28;20433;-76
2024/01/03 06:48:57;;;;;;;4.50;1.70;;;17.10;68.00;;;;;;5013482;28;20558;-76
2024/01/03 06:51:25;;;;;;;3.10;1.83;;;17.20;67.80;;;;;;5012903;28;20467;-76
2024/01/03 06:53:54;;;;;;;4.33;2.27;;;17.10;67.60;;;;;;5013153;28;20476;-78
2024/01/03 06:56:24;;;;;;;3.70;1.57;;;17.20;67.90;;;;;;5012712;28;20449;-77
2024/01/03 06:58:53;;;;;;;2.90;1.60;;;17.20;67.90;;;;;;5012766;28;20420;-76
2024/01/03 07:01:20;;;;;;;6.50;1.53;;;17.20;67.90;;;;;;5004619;28;21027;-79
2024/01/03 07:03:49;;;;;;;4.43;1.63;;;17.20;68.00;;;;;;4998625;28;20519;-76
2024/01/03 07:06:17;;;;;;;3.80;1.87;;;17.20;67.70;;;;;;5013417;28;20452;-77
2024/01/03 07:08:48;;;;;;;6.27;1.50;;;17.30;68.10;;;;;;5012811;28;20478;-76
2024/01/03 07:11:17;;;;;;;8.43;1.60;;;17.30;67.70;;;;;;5023288;22;20591;-78
2024/01/03 07:13:46;;;;;;;3.20;1.60;;;17.30;67.50;;;;;;5012723;28;20463;-78
2024/01/03 07:16:15;;;;;;;6.97;2.17;;;17.30;68.10;;;;;;5023165;28;20490;-78
2024/01/03 07:18:43;;;;;;;4.93;2.03;;;17.30;67.50;;;;;;5019593;28;20502;-79
2024/01/03 07:21:12;;;;;;;2.13;1.57;;;17.30;67.80;;;;;;5013354;28;20971;-78
2024/01/03 07:23:40;;;;;;;4.20;1.87;;;17.30;67.50;;;;;;5014794;28;20444;-79
2024/01/03 07:26:08;;;;;;;7.33;2.10;;;17.20;67.60;;;;;;5014813;28;20460;-78
2024/01/03 07:28:37;;;;;;;3.57;2.03;;;17.30;67.50;;;;;;5013935;28;20527;-79
2024/01/03 07:31:06;;;;;;;8.00;1.80;;;17.30;67.40;;;;;;5013483;28;20460;-78
2024/01/03 07:33:34;;;;;;;5.13;1.53;;;17.30;67.70;;;;;;5013670;28;20436;-78
2024/01/03 07:36:02;;;;;;;3.07;1.90;;;17.30;67.40;;;;;;5014658;28;20448;-79
2024/01/03 07:38:30;;;;;;;6.90;2.50;;;17.30;67.40;;;;;;5014755;28;20447;-78
2024/01/03 07:40:59;;;;;;;6.53;1.73;;;17.30;67.40;;;;;;5012607;28;20503;-78
2024/01/03 07:43:27;;;;;;;4.27;1.60;;;17.30;67.40;;;;;;5005030;28;20511;-77
2024/01/03 07:45:55;;;;;;;4.80;2.17;;;17.40;67.30;;;;;;5013215;28;20475;-77
2024/01/03 07:48:24;;;;;;;7.23;1.97;;;17.30;67.10;;;;;;5011958;28;20559;-76
2024/01/03 07:50:53;;;;;;;3.63;1.80;;;17.40;67.10;;;;;;5011967;28;20460;-79
2024/01/03 07:53:21;;;;;;;5.40;2.13;;;17.30;67.20;;;;;;5013620;28;20460;-78
2024/01/03 07:55:49;;;;;;;2.87;1.70;;;17.40;68.30;;;;;;5013156;28;20444;-77
2024/01/03 07:58:17;;;;;;;5.20;2.07;;;17.40;67.20;;;;;;5012568;28;20432;-78
2024/01/03 08:00:45;;;;;;;5.47;2.27;;;17.40;67.40;;;;;;5004674;28;20522;-77
2024/01/03 08:03:13;;;;;;;5.80;2.03;;;17.40;67.40;;;;;;5009900;28;20494;-77
2024/01/03 08:05:42;;;;;;;6.27;1.57;;;17.40;67.20;;;;;;4992425;28;20432;-77
2024/01/03 08:08:10;;;;;;;7.43;2.17;;;17.40;67.50;;;;;;5002049;28;20403;-76
2024/01/03 08:10:39;;;;;;;6.47;1.63;;;17.40;67.30;;;;;;5002788;28;20464;-76
2024/01/03 08:13:07;;;;;;;4.07;1.90;;;17.40;67.30;;;;;;5000530;28;20523;-76
2024/01/03 08:15:36;;;;;;;5.50;1.90;;;17.40;66.90;;;;;;4995840;28;20491;-77
2024/01/03 08:18:04;;;;;;;4.70;1.73;;;17.40;67.20;;;;;;4996526;28;20448;-77
2024/01/03 08:20:32;;;;;;;6.67;2.10;;;17.40;67.00;;;;;;4999053;28;20817;-77
2024/01/03 08:23:01;;;;;;;3.30;1.50;;;17.40;66.80;;;;;;5006484;28;20516;-77
2024/01/03 08:25:29;;;;;;;3.53;1.50;;;17.50;66.80;;;;;;5006842;28;20476;-77
2024/01/03 08:27:57;;;;;;;4.87;1.70;;;17.50;66.70;;;;;;5006524;28;20440;-77
2024/01/03 08:30:26;;;;;;;2.73;1.80;;;17.50;66.50;;;;;;5004604;28;20504;-75
2024/01/03 08:32:54;;;;;;;8.70;1.43;;;17.50;66.60;;;;;;4992438;28;20446;-77
2024/01/03 08:35:22;;;;;;;6.93;1.60;;;17.60;66.40;;;;;;5000187;28;20437;-77
2024/01/03 08:37:50;;;;;;;5.10;1.87;;;17.60;66.20;;;;;;4996663;28;20452;-77
2024/01/03 08:40:20;;;;;;;5.10;1.90;;;17.60;66.30;;;;;;5005203;28;20547;-78
2024/01/03 08:42:48;;;;;;;10.17;2.20;;;17.70;66.10;;;;;;5007624;28;20535;-79
2024/01/03 08:45:17;;;;;;;4.17;1.70;;;17.70;66.10;;;;;;5010285;28;20448;-78
2024/01/03 08:47:45;;;;;;;5.03;2.10;;;17.70;66.00;;;;;;5006297;28;20464;-79
2024/01/03 08:50:14;;;;;;;6.33;1.80;;;17.80;65.90;;;;;;5010438;28;20483;-80
2024/01/03 08:52:42;;;;;;;8.10;2.17;;;17.80;65.80;;;;;;5010125;28;20470;-78
2024/01/03 08:55:10;;;;;;;9.97;1.80;;;17.80;65.90;;;;;;5001439;28;20502;-77
2024/01/03 08:57:40;;;;;;;7.30;1.87;;;17.90;65.80;;;;;;4998051;28;20528;-78
2024/01/03 09:00:10;;;;;;;5.80;1.90;;;17.90;65.80;;;;;;5000232;28;20564;-78
2024/01/03 09:02:39;;;;;;;8.27;2.00;;;18.00;65.80;;;;;;5001489;28;20457;-78
2024/01/03 09:05:08;;;;;;;4.50;1.53;;;18.00;65.80;;;;;;5006410;28;20436;-77
2024/01/03 09:07:36;;;;;;;6.80;2.33;;;18.10;65.60;;;;;;5005137;28;20436;-77
2024/01/03 09:10:04;;;;;;;10.33;1.90;;;18.10;65.60;;;;;;5002505;28;20515;-77
2024/01/03 09:12:32;;;;;;;5.67;1.80;;;18.10;65.60;;;;;;5005366;28;20467;-77
2024/01/03 09:15:01;;;;;;;2.53;1.90;;;18.10;65.70;;;;;;5001830;28;20449;-78
2024/01/03 09:17:29;;;;;;;5.33;1.93;;;18.10;65.50;;;;;;5005411;28;20483;-77
2024/01/03 09:19:58;;;;;;;3.30;1.60;;;18.10;65.50;;;;;;5005671;28;20502;-77
2024/01/03 09:22:26;;;;;;;5.00;1.87;;;18.10;65.30;;;;;;5008443;28;20445;-77
2024/01/03 09:24:55;;;;;;;5.37;2.10;;;18.10;65.60;;;;;;5000118;28;20437;-78
2024/01/03 09:27:25;;;;;;;4.20;1.40;;;18.10;65.60;;;;;;5003088;28;20415;-79
2024/01/03 09:29:56;;;;;;;5.10;1.97;;;18.10;65.70;;;;;;5002823;28;20528;-78
2024/01/03 09:32:25;;;;;;;5.33;1.60;;;18.10;65.60;;;;;;5004920;28;20440;-78
2024/01/03 09:34:54;;;;;;;3.50;1.93;;;18.10;65.50;;;;;;5008042;28;20496;-79
2024/01/03 09:37:21;;;;;;;5.63;1.80;;;18.10;65.80;;;;;;5002272;28;20475;-78
2024/01/03 09:39:50;;;;;;;4.47;1.30;;;18.20;66.10;;;;;;5006127;28;20546;-78
2024/01/03 09:42:18;;;;;;;9.17;2.03;;;18.30;66.10;;;;;;5007852;28;20445;-77
2024/01/03 09:44:47;;;;;;;4.73;1.80;;;18.30;65.60;;;;;;5002864;28;20448;-78
2024/01/03 09:47:15;;;;;;;5.97;2.23;;;18.30;65.70;;;;;;5006315;28;20448;-78
2024/01/03 09:49:47;;;;;;;5.13;1.73;;;18.40;65.90;;;;;;5006993;28;20532;-79
2024/01/03 09:52:15;;;;;;;4.20;1.73;;;18.40;65.60;;;;;;5000973;28;20516;-79
2024/01/03 09:54:43;;;;;;;7.10;1.90;;;18.40;65.40;;;;;;5011791;28;20528;-79
2024/01/03 09:57:11;;;;;;;3.40;1.83;;;18.40;65.60;;;;;;5010329;28;20540;-78
2024/01/03 09:59:39;;;;;;;6.03;2.00;;;18.40;65.80;;;;;;5012247;28;20539;-78
2024/01/03 10:02:09;;;;;;;4.97;1.97;;;18.50;65.70;;;;;;5005550;28;20532;-79
2024/01/03 10:04:37;;;;;;;5.10;1.73;;;18.60;65.70;;;;;;5006231;28;20840;-78
2024/01/03 10:07:07;;;;;;;2.73;1.50;;;18.50;65.40;;;;;;5005591;28;20452;-80
2024/01/03 10:09:41;;;;;;;3.77;2.00;;;18.60;65.70;;;;;;5005300;28;20472;-79
2024/01/03 10:12:16;;;;;;;3.80;1.60;;;18.80;65.90;;;;;;5004050;28;20459;-78
2024/01/03 10:14:45;;;;;;;4.30;2.03;;;18.90;65.90;;;;;;5006130;28;20444;-77
2024/01/03 10:17:14;;;;;;;5.77;1.80;;;19.20;65.90;;;;;;5006226;28;20521;-79
2024/01/03 10:19:42;;;;;;;4.13;1.83;;;19.30;65.50;;;;;;5004219;28;20519;-78
2024/01/03 10:22:12;;;;;;;6.07;1.87;;;19.40;65.10;;;;;;5004495;28;20457;-79
2024/01/03 10:24:42;;;;;;;4.87;1.67;;;19.50;64.90;;;;;;5002938;28;20492;-78
2024/01/03 10:27:11;;;;;;;2.67;1.40;;;19.50;64.70;;;;;;5008415;28;20449;-77
2024/01/03 10:29:42;;;;;;;6.23;2.07;;;19.50;64.50;;;;;;5004978;28;20496;-77
2024/01/03 10:32:15;;;;;;;4.40;1.80;;;19.50;64.50;;;;;;5005506;28;20451;-78
2024/01/03 10:34:44;;;;;;;6.33;2.20;;;19.50;64.40;;;;;;5001201;28;20460;-79
2024/01/03 10:37:17;;;;;;;2.63;1.63;;;19.40;64.40;;;;;;5004047;28;20499;-78
2024/01/03 10:39:46;;;;;;;3.33;1.90;;;19.40;64.40;;;;;;5004579;28;20475;-78
2024/01/03 10:42:15;;;;;;;4.33;1.90;;;19.40;64.50;;;;;;5001124;28;20548;-78
2024/01/03 10:44:43;;;;;;;4.97;1.63;;;19.30;64.50;;;;;;5003575;28;20452;-79
2024/01/03 10:47:11;;;;;;;1.70;1.60;;;19.30;64.40;;;;;;5009249;28;20444;-77
2024/01/03 10:49:39;;;;;;;4.53;1.67;;;19.30;64.60;;;;;;5012555;28;20460;-79
2024/01/03 10:52:07;;;;;;;6.50;1.87;;;19.20;64.60;;;;;;5012899;28;20524;-78
2024/01/03 10:54:41;;;;;;;2.43;1.47;;;19.20;64.80;;;;;;5013171;28;20531;-78
2024/01/03 10:57:09;;;;;;;4.43;1.67;;;19.20;64.80;;;;;;5011142;28;20459;-78
2024/01/03 10:59:40;;;;;;;1.77;1.47;;;19.10;64.80;;;;;;4992963;28;20475;-78
2024/01/03 11:02:17;;;;;;;6.33;1.93;;;19.00;64.80;;;;;;4992650;28;20566;-78
2024/01/03 11:04:49;;;;;;;6.87;1.80;;;19.00;65.10;;;;;;4993571;28;20449;-78
2024/01/03 11:07:20;;;;;;;4.87;1.90;;;19.10;65.30;;;;;;4993992;28;20520;-78
2024/01/03 11:09:49;;;;;;;2.90;1.50;;;19.20;65.50;;;;;;4992777;28;20470;-78
2024/01/03 11:12:18;;;;;;;3.77;1.30;;;19.30;65.30;;;;;;4993643;28;20496;-78
2024/01/03 11:14:46;;;;;;;7.13;1.67;;;19.40;65.30;;;;;;4993647;28;20455;-79
2024/01/03 11:17:18;;;;;;;2.87;1.57;;;19.50;65.10;;;;;;4993355;28;20429;-79
2024/01/03 11:19:46;;;;;;;3.03;1.80;;;19.50;64.60;;;;;;4993125;28;20548;-79
2024/01/03 11:22:14;;;;;;;4.07;2.03;;;19.50;64.50;;;;;;4992930;28;21016;-78
2024/01/03 11:24:46;;;;;;;3.30;1.50;;;19.50;64.50;;;;;;4996966;28;20464;-78
2024/01/03 11:27:21;;;;;;;2.60;1.30;;;19.50;64.60;;;;;;5012878;28;20467;-78
2024/01/03 11:29:53;;;;;;;4.60;1.60;;;19.50;64.70;;;;;;4994487;28;20464;-79
2024/01/03 11:32:36;;;;;;;5.13;1.50;;;19.50;64.50;;;;;;4993064;28;20481;-78
2024/01/03 11:35:08;;;;;;;4.47;1.60;;;19.70;65.20;;;;;;4992710;28;20536;-78
2024/01/03 11:37:39;;;;;;;2.63;1.40;;;20.00;65.20;;;;;;5011692;28;20432;-80
2024/01/03 11:40:10;;;;;;;4.93;1.83;;;20.20;64.60;;;;;;5008125;28;20469;-78
2024/01/03 11:42:39;;;;;;;2.10;1.30;;;20.30;64.40;;;;;;4992984;28;20551;-80
2024/01/03 11:45:09;;;;;;;2.30;1.47;;;20.50;64.50;;;;;;4993257;28;20480;-80
2024/01/03 11:47:39;;;;;;;4.63;1.50;;;20.70;64.10;;;;;;5013530;28;20440;-82
2024/01/03 11:50:08;;;;;;;5.83;1.40;;;20.80;63.90;;;;;;5012054;28;20499;-78
2024/01/03 11:52:37;;;;;;;6.10;1.67;;;21.00;63.60;;;;;;5013038;28;20477;-79
2024/01/03 11:55:07;;;;;;;4.50;1.37;;;21.30;63.40;;;;;;5012392;28;20490;-78
2024/01/03 11:57:36;;;;;;;2.80;1.33;;;21.50;63.20;;;;;;5012393;28;20451;-78
2024/01/03 12:00:06;;;;;;;5.07;1.60;;;21.60;62.40;;;;;;5011145;28;20498;-78
2024/01/03 12:02:34;;;;;;;3.37;1.37;;;21.60;62.10;;;;;;5011490;28;20436;-77
2024/01/03 12:05:03;;;;;;;2.97;1.50;;;21.60;62.00;;;;;;5014039;28;20424;-79
2024/01/03 12:07:32;;;;;;;4.30;1.43;;;21.60;61.80;;;;;;5003003;28;20484;-78
2024/01/03 12:10:00;;;;;;;3.57;1.57;;;21.60;61.60;;;;;;4991637;28;20469;-77
2024/01/03 12:12:28;;;;;;;3.50;1.30;;;21.40;61.40;;;;;;5000442;28;20494;-80
2024/01/03 12:14:56;;;;;;;5.13;1.70;;;21.30;61.50;;;;;;5008170;28;20469;-79
2024/01/03 12:17:27;;;;;;;2.50;1.60;;;21.20;62.30;;;;;;4993102;28;20437;-77
2024/01/03 12:20:08;;;;;;;3.00;1.53;;;21.20;62.30;;;;;;5012380;28;20474;-77
2024/01/03 12:22:36;;;;;;;3.93;1.53;;;21.20;62.40;;;;;;5012002;28;20419;-76
2024/01/03 12:25:05;;;;;;;5.40;1.83;;;21.00;62.10;;;;;;5013146;28;20444;-77
2024/01/03 12:27:33;;;;;;;4.93;1.50;;;20.90;62.40;;;;;;5012339;28;20448;-77
2024/01/03 12:30:15;;;;;;;1.63;1.40;;;20.80;62.60;;;;;;5010169;28;20484;-76
2024/01/03 12:32:46;;;;;;;8.53;1.60;;;20.80;63.20;;;;;;5010367;28;20500;-77
2024/01/03 12:35:15;;;;;;;2.90;1.63;;;20.80;63.20;;;;;;4993656;28;20995;-77
2024/01/03 12:37:44;;;;;;;1.73;1.30;;;20.80;63.20;;;;;;4995193;28;21043;-76
2024/01/03 12:40:15;;;;;;;3.33;1.53;;;20.90;63.30;;;;;;4994300;28;20552;-76
2024/01/03 12:42:43;;;;;;;5.57;2.50;;;20.90;63.60;;;;;;5003981;28;20460;-77
2024/01/03 12:45:11;;;;;;;4.13;1.87;;;21.30;63.70;;;;;;5015305;28;20436;-77
2024/01/03 12:47:40;;;;;;;3.37;1.50;;;21.60;63.50;;;;;;5004239;28;20473;-78
2024/01/03 12:50:10;;;;;;;4.63;1.87;;;21.80;62.80;;;;;;4998316;28;20456;-79
2024/01/03 12:52:38;;;;;;;1.60;1.40;;;21.90;62.30;;;;;;5004403;28;20454;-79
2024/01/03 12:55:09;;;;;;;5.87;1.90;;;21.90;61.90;;;;;;5002270;28;20423;-78
2024/01/03 12:57:36;;;;;;;6.67;1.80;;;21.90;61.40;;;;;;5017547;28;20510;-79